Time;durP1;ratioP1;P1;durP2;ratioP2;P2;SDS_P1;SDS_P2;PMS_P1;PMS_P2;Temp;Humidity;BMP_temperature;BMP_pressure;BME280_temperature;BME280_humidity;BME280_pressure;Samples;Min_cycle;Max_cycle;Signal;HPM_P1;HPM_P2
2023/08/23 00:01:38;;;;;;;;;;;;;;;15.80;100.00;102014.56;5008383;28;19925;-86
2023/08/23 00:04:23;;;;;;;;;;;;;;;15.79;100.00;102015.50;5012213;28;20835;-86
2023/08/23 00:07:12;;;;;;;;;;;;;;;15.76;100.00;102015.69;4999743;28;19929;-85
2023/08/23 00:09:58;;;;;;;;;;;;;;;15.73;100.00;102015.81;5009392;28;20743;-85
2023/08/23 00:12:43;;;;;;;;;;;;;;;15.71;100.00;102023.03;4998928;28;20461;-85
2023/08/23 00:15:29;;;;;;;;;;;;;;;15.70;100.00;102015.97;4996985;28;20524;-86
2023/08/23 00:18:15;;;;;;;;;;;;;;;15.67;100.00;102010.75;5010642;28;19925;-85
2023/08/23 00:21:00;;;;;;;;;;;;;;;15.65;100.00;102018.00;5015055;28;19929;-84
2023/08/23 00:23:46;;;;;;;;;;;;;;;15.62;100.00;102013.66;4995273;28;20467;-84
2023/08/23 00:26:32;;;;;;;;;;;;;;;15.61;100.00;102012.81;5018177;28;19921;-85
2023/08/23 00:29:17;;;;;;;;;;;;;;;15.61;100.00;101998.59;5016879;28;19924;-83
2023/08/23 00:32:03;;;;;;;;;;;;;;;15.60;100.00;102000.38;5002116;28;19979;-84
2023/08/23 00:34:49;;;;;;;;;;;;;;;15.57;100.00;102000.53;4995041;28;19951;-84
2023/08/23 00:37:34;;;;;;;;;;;;;;;15.55;100.00;102002.44;5013026;28;19936;-84
2023/08/23 00:40:20;;;;;;;;;;;;;;;15.52;100.00;102001.72;4986414;28;19925;-84
2023/08/23 00:43:09;;;;;;;;;;;;;;;15.46;100.00;102000.19;5011990;28;21576;-83
2023/08/23 00:45:54;;;;;;;;;;;;;;;15.44;100.00;102002.06;5011096;28;19921;-83
2023/08/23 00:48:40;;;;;;;;;;;;;;;15.43;100.00;101995.00;4996713;28;20772;-83
2023/08/23 00:51:26;;;;;;;;;;;;;;;15.41;100.00;102003.09;4994983;28;20034;-84
2023/08/23 00:54:11;;;;;;;;;;;;;;;15.38;100.00;102003.25;4996768;28;19932;-84
2023/08/23 00:57:00;;;;;;;;;;;;;;;15.34;100.00;101998.97;4994134;28;19931;-82
2023/08/23 00:59:45;;;;;;;;;;;;;;;15.31;100.00;101993.81;4996036;28;19924;-83
2023/08/23 01:02:33;;;;;;;;;;;;;;;15.28;100.00;101989.47;4992131;28;19920;-84
2023/08/23 01:05:18;;;;;;;;;;;;;;;15.26;100.00;101995.81;5006200;28;21707;-85
2023/08/23 01:08:07;;;;;;;;;;;;;;;15.24;100.00;101989.69;4993060;28;19986;-85
2023/08/23 01:11:08;;;;;;;;;;;;;;;15.23;100.00;101986.16;5010309;28;20552;-85
2023/08/23 01:14:12;;;;;;;;;;;;;;;15.27;100.00;101978.88;5008182;28;20415;-84
2023/08/23 01:16:58;;;;;;;;;;;;;;;15.27;100.00;101974.41;4988562;28;20379;-84
2023/08/23 01:19:47;;;;;;;;;;;;;;;15.29;100.00;101967.19;4977896;28;19925;-85
2023/08/23 01:22:33;;;;;;;;;;;;;;;15.29;100.00;101974.31;4973899;28;19925;-84
2023/08/23 01:25:19;;;;;;;;;;;;;;;15.27;100.00;101969.06;4988558;28;19953;-85
2023/08/23 01:28:05;;;;;;;;;;;;;;;15.22;100.00;101968.41;4983169;28;19929;-83
2023/08/23 01:30:50;;;;;;;;;;;;;;;15.16;100.00;101964.22;4981615;28;19960;-84
2023/08/23 01:33:40;;;;;;;;;;;;;;;15.10;100.00;101958.31;4982477;28;19937;-84
2023/08/23 01:36:26;;;;;;;;;;;;;;;15.10;100.00;101961.00;4980000;28;20168;-84
2023/08/23 01:39:11;;;;;;;;;;;;;;;15.06;100.00;101952.28;4991656;28;19922;-83
2023/08/23 01:41:57;;;;;;;;;;;;;;;15.01;100.00;101948.94;4979651;28;19957;-84
2023/08/23 01:44:46;;;;;;;;;;;;;;;14.99;100.00;101951.66;4992659;28;21989;-84
2023/08/23 01:47:31;;;;;;;;;;;;;;;14.97;100.00;101948.22;4992243;28;19921;-85
2023/08/23 01:50:17;;;;;;;;;;;;;;;14.99;100.00;101956.16;4983279;28;20376;-83
2023/08/23 01:53:03;;;;;;;;;;;;;;;14.98;100.00;101949.94;4962218;28;19921;-83
2023/08/23 01:55:48;;;;;;;;;;;;;;;14.99;100.00;101943.66;4991542;28;19926;-83
2023/08/23 01:58:34;;;;;;;;;;;;;;;14.99;100.00;101945.50;4974982;28;19940;-83
2023/08/23 02:01:20;;;;;;;;;;;;;;;15.01;100.00;101944.50;4992613;28;20619;-85
2023/08/23 02:04:05;;;;;;;;;;;;;;;15.01;100.00;101944.50;4990651;28;19929;-83
2023/08/23 02:06:51;;;;;;;;;;;;;;;15.02;100.00;101946.22;4992391;28;19929;-82
2023/08/23 02:09:39;;;;;;;;;;;;;;;15.03;100.00;101955.09;4979702;28;19933;-84
2023/08/23 02:12:25;;;;;;;;;;;;;;;15.03;100.00;101942.59;4986892;28;19927;-83
2023/08/23 02:15:11;;;;;;;;;;;;;;;15.03;100.00;101955.94;5000141;28;19928;-84
2023/08/23 02:17:56;;;;;;;;;;;;;;;15.03;100.00;101947.94;5000415;28;19932;-84
2023/08/23 02:20:42;;;;;;;;;;;;;;;15.05;100.00;101956.72;5012187;28;19929;-84
2023/08/23 02:23:27;;;;;;;;;;;;;;;15.05;100.00;101953.22;4998388;28;20015;-85
2023/08/23 02:26:13;;;;;;;;;;;;;;;15.04;100.00;101949.66;5015587;28;19924;-83
2023/08/23 02:28:59;;;;;;;;;;;;;;;15.04;100.00;101947.00;4998811;28;20380;-83
2023/08/23 02:31:44;;;;;;;;;;;;;;;15.06;100.00;101942.47;5013860;28;20054;-85
2023/08/23 02:34:30;;;;;;;;;;;;;;;15.07;100.00;101943.31;5013461;28;19932;-84
2023/08/23 02:37:15;;;;;;;;;;;;;;;15.11;100.00;101949.38;5002449;28;19998;-84
2023/08/23 02:40:01;;;;;;;;;;;;;;;15.14;100.00;101939.44;4981556;28;19929;-84
2023/08/23 02:42:47;;;;;;;;;;;;;;;15.18;100.00;101940.16;4999527;28;19934;-84
2023/08/23 02:45:32;;;;;;;;;;;;;;;15.23;100.00;101948.81;5013373;28;19925;-84
2023/08/23 02:48:18;;;;;;;;;;;;;;;15.30;100.00;101949.34;5013764;28;20014;-83
2023/08/23 02:51:04;;;;;;;;;;;;;;;15.34;100.00;101946.50;4983006;28;20002;-83
2023/08/23 02:53:50;;;;;;;;;;;;;;;15.35;100.00;101952.69;5012249;28;19921;-84
2023/08/23 02:56:35;;;;;;;;;;;;;;;15.36;100.00;101942.88;5013212;28;19932;-83
2023/08/23 02:59:21;;;;;;;;;;;;;;;15.37;100.00;101941.94;5015218;28;20231;-84
2023/08/23 03:02:06;;;;;;;;;;;;;;;15.37;100.00;101939.28;4996235;28;19925;-84
2023/08/23 03:04:52;;;;;;;;;;;;;;;15.36;100.00;101937.53;5013391;28;19937;-84
2023/08/23 03:07:38;;;;;;;;;;;;;;;15.37;100.00;101945.50;5000102;28;19936;-85
2023/08/23 03:10:23;;;;;;;;;;;;;;;15.36;100.00;101948.22;5013074;28;19924;-84
2023/08/23 03:13:12;;;;;;;;;;;;;;;15.37;100.00;101944.59;4997975;28;19925;-84
2023/08/23 03:15:57;;;;;;;;;;;;;;;15.37;100.00;101944.59;5013841;28;19936;-85
2023/08/23 03:18:43;;;;;;;;;;;;;;;15.37;100.00;101942.81;4999645;28;20043;-85
2023/08/23 03:21:29;;;;;;;;;;;;;;;15.39;100.00;101942.72;4998881;28;19929;-83
2023/08/23 03:24:14;;;;;;;;;;;;;;;15.40;100.00;101944.44;5018401;28;20474;-84
2023/08/23 03:27:00;;;;;;;;;;;;;;;15.40;100.00;101939.97;5004205;28;19936;-83
2023/08/23 03:29:46;;;;;;;;;;;;;;;15.42;100.00;101940.75;5002692;28;21863;-84
2023/08/23 03:32:31;;;;;;;;;;;;;;;15.44;100.00;101935.38;4998447;28;19921;-84
2023/08/23 03:35:17;;;;;;;;;;;;;;;15.44;100.00;101938.91;5014209;28;20026;-84
2023/08/23 03:38:03;;;;;;;;;;;;;;;15.44;100.00;101935.38;4999742;28;20887;-83
2023/08/23 03:40:49;;;;;;;;;;;;;;;15.44;100.00;101930.91;5013442;28;21541;-84
2023/08/23 03:43:35;;;;;;;;;;;;;;;15.44;100.00;101936.25;5001073;28;19983;-84
2023/08/23 03:46:24;;;;;;;;;;;;;;;15.44;100.00;101932.69;5014549;28;19928;-84
2023/08/23 03:49:09;;;;;;;;;;;;;;;15.44;100.00;101927.34;4997073;28;20020;-83
2023/08/23 03:51:55;;;;;;;;;;;;;;;15.43;100.00;101933.63;5009052;28;19951;-83
2023/08/23 03:54:41;;;;;;;;;;;;;;;15.41;100.00;101933.72;5002994;28;19940;-85
2023/08/23 03:57:27;;;;;;;;;;;;;;;15.39;100.00;101935.59;5000295;28;19929;-84
2023/08/23 04:00:13;;;;;;;;;;;;;;;15.39;100.00;101926.72;5015538;28;19936;-84
2023/08/23 04:03:01;;;;;;;;;;;;;;;15.39;100.00;101929.38;4998573;28;20019;-84
2023/08/23 04:05:46;;;;;;;;;;;;;;;15.38;100.00;101923.19;4996182;28;19925;-84
2023/08/23 04:08:32;;;;;;;;;;;;;;;15.37;100.00;101926.81;5013791;28;19921;-84
2023/08/23 04:11:17;;;;;;;;;;;;;;;15.36;100.00;101932.22;5010977;28;20487;-84
2023/08/23 04:14:03;;;;;;;;;;;;;;;15.33;100.00;101923.44;4997409;28;19928;-85
2023/08/23 04:16:49;;;;;;;;;;;;;;;15.32;100.00;101921.66;4997232;28;20043;-83
2023/08/23 04:19:35;;;;;;;;;;;;;;;15.29;100.00;101919.16;5011384;28;19928;-84
2023/08/23 04:22:20;;;;;;;;;;;;;;;15.29;100.00;101921.84;5010246;28;20177;-85
2023/08/23 04:25:06;;;;;;;;;;;;;;;15.27;100.00;101928.19;5000426;28;19920;-84
2023/08/23 04:27:52;;;;;;;;;;;;;;;15.25;100.00;101930.91;5000064;28;19917;-84
2023/08/23 04:30:39;;;;;;;;;;;;;;;15.24;100.00;101934.53;5017362;28;19932;-85
2023/08/23 04:33:24;;;;;;;;;;;;;;;15.23;100.00;101929.25;5002585;28;19929;-85
2023/08/23 04:36:10;;;;;;;;;;;;;;;15.22;100.00;101928.41;5010416;28;19975;-85
2023/08/23 04:38:56;;;;;;;;;;;;;;;15.22;100.00;101931.06;4985032;28;19928;-85
2023/08/23 04:41:41;;;;;;;;;;;;;;;15.20;100.00;101931.13;4997744;28;19969;-85
2023/08/23 04:44:29;;;;;;;;;;;;;;;15.21;100.00;101932.00;5012358;28;19924;-84
2023/08/23 04:47:14;;;;;;;;;;;;;;;15.19;100.00;101937.41;4997035;28;20403;-85
2023/08/23 04:50:00;;;;;;;;;;;;;;;15.14;100.00;101939.44;5008527;28;19931;-85
2023/08/23 04:52:46;;;;;;;;;;;;;;;15.10;100.00;101928.97;4983228;28;20907;-85
2023/08/23 04:55:31;;;;;;;;;;;;;;;15.06;100.00;101930.94;4999131;28;19929;-85
2023/08/23 04:58:17;;;;;;;;;;;;;;;15.04;100.00;101939.00;4997134;28;20340;-85
2023/08/23 05:01:06;;;;;;;;;;;;;;;15.02;100.00;101932.00;5011154;28;19929;-84
2023/08/23 05:03:51;;;;;;;;;;;;;;;15.01;100.00;101933.81;5014248;28;19929;-85
2023/08/23 05:06:40;;;;;;;;;;;;;;;15.00;100.00;101929.44;5013913;28;19929;-85
2023/08/23 05:09:28;;;;;;;;;;;;;;;14.99;100.00;101930.34;5018356;28;20496;-85
2023/08/23 05:12:14;;;;;;;;;;;;;;;15.00;100.00;101934.75;5016108;28;21176;-84
2023/08/23 05:15:00;;;;;;;;;;;;;;;14.99;100.00;101926.81;5000956;28;19967;-85
2023/08/23 05:17:45;;;;;;;;;;;;;;;14.97;100.00;101926.88;5014705;28;19932;-85
2023/08/23 05:20:31;;;;;;;;;;;;;;;14.97;100.00;101929.56;5021004;28;20373;-85
2023/08/23 05:23:17;;;;;;;;;;;;;;;14.98;100.00;101936.63;5014494;28;19946;-85
2023/08/23 05:26:03;;;;;;;;;;;;;;;14.99;100.00;101935.69;5017470;28;20048;-83
2023/08/23 05:28:52;;;;;;;;;;;;;;;15.00;100.00;101940.09;5007649;28;19933;-83
2023/08/23 05:31:37;;;;;;;;;;;;;;;15.03;100.00;101933.75;5020682;28;21874;-83
2023/08/23 05:34:23;;;;;;;;;;;;;;;15.06;100.00;101939.81;5010434;28;19925;-84
2023/08/23 05:37:13;;;;;;;;;;;;;;;15.10;100.00;101947.66;5014713;28;19925;-84
2023/08/23 05:39:59;;;;;;;;;;;;;;;15.13;100.00;101947.50;5017459;28;19936;-83
2023/08/23 05:42:44;;;;;;;;;;;;;;;15.18;100.00;101945.47;5019545;28;20396;-84
2023/08/23 05:45:30;;;;;;;;;;;;;;;15.23;100.00;101946.13;4991607;28;21796;-84
2023/08/23 05:48:16;;;;;;;;;;;;;;;15.29;100.00;101950.31;5020500;28;20276;-83
2023/08/23 05:51:02;;;;;;;;;;;;;;;15.36;100.00;101953.56;5018769;28;19947;-85
2023/08/23 05:53:48;;;;;;;;;;;;;;;15.43;100.00;101945.16;5006669;28;19924;-85
2023/08/23 05:56:33;;;;;;;;;;;;;;;15.50;100.00;101951.06;5020424;28;19924;-84
2023/08/23 05:59:19;;;;;;;;;;;;;;;15.58;100.00;101954.22;5005214;28;20850;-84
2023/08/23 06:02:05;;;;;;;;;;;;;;;15.66;100.00;101961.00;5019059;28;20605;-84
2023/08/23 06:04:51;;;;;;;;;;;;;;;15.76;100.00;101946.25;5004074;28;19944;-84
2023/08/23 06:07:38;;;;;;;;;;;;;;;15.90;100.00;101953.56;5005283;28;19925;-84
2023/08/23 06:10:23;;;;;;;;;;;;;;;16.04;100.00;101955.56;5017725;28;19932;-84
2023/08/23 06:13:12;;;;;;;;;;;;;;;16.17;100.00;101950.44;5016546;28;19956;-84
2023/08/23 06:15:57;;;;;;;;;;;;;;;16.28;100.00;101947.22;5003668;28;19959;-84
2023/08/23 06:18:43;;;;;;;;;;;;;;;16.37;100.00;101944.09;5002366;28;19955;-83
2023/08/23 06:21:29;;;;;;;;;;;;;;;16.49;100.00;101937.22;5013619;28;20895;-84
2023/08/23 06:24:17;;;;;;;;;;;;;;;16.66;100.00;101943.47;5017443;28;19952;-82
2023/08/23 06:27:03;;;;;;;;;;;;;;;16.78;100.00;101947.31;4990152;28;19998;-84
2023/08/23 06:29:49;;;;;;;;;;;;;;;16.86;100.00;101953.09;4996649;28;20353;-82
2023/08/23 06:32:34;;;;;;;;;;;;;;;16.96;100.00;101948.09;5020009;28;20211;-83
2023/08/23 06:35:21;;;;;;;;;;;;;;;17.01;100.00;101955.88;5019010;28;20014;-84
2023/08/23 06:38:10;;;;;;;;;;;;;;;17.07;100.00;101950.22;5018345;28;19925;-83
2023/08/23 06:40:56;;;;;;;;;;;;;;;17.12;100.00;101949.94;5005675;28;19925;-82
2023/08/23 06:43:41;;;;;;;;;;;;;;;17.20;100.00;101955.72;5019062;28;21789;-83
2023/08/23 06:46:30;;;;;;;;;;;;;;;17.27;100.00;101953.59;5017586;28;20545;-83
2023/08/23 06:49:16;;;;;;;;;;;;;;;17.36;100.00;101947.69;5004628;28;20387;-83
2023/08/23 06:52:05;;;;;;;;;;;;;;;17.47;100.00;101947.09;5019238;28;19939;-83
2023/08/23 06:54:50;;;;;;;;;;;;;;;17.57;100.00;101942.06;5016606;28;20371;-84
2023/08/23 06:57:36;;;;;;;;;;;;;;;17.67;100.00;101953.97;5016503;28;19975;-83
2023/08/23 07:00:21;;;;;;;;;;;;;;;17.82;100.00;101954.88;5013549;28;20371;-77
2023/08/23 07:03:07;;;;;;;;;;;;;;;18.01;100.00;101953.78;5011266;28;20015;-85
2023/08/23 07:05:53;;;;;;;;;;;;;;;18.10;100.00;101950.63;4998368;28;19976;-80
2023/08/23 07:08:42;;;;;;;;;;;;;;;18.22;100.00;101951.69;5014577;28;19925;-82
2023/08/23 07:11:28;;;;;;;;;;;;;;;18.38;100.00;101958.78;5001096;28;19931;-80
2023/08/23 07:14:13;;;;;;;;;;;;;;;18.62;100.00;101955.56;5012760;28;20394;-80
2023/08/23 07:16:59;;;;;;;;;;;;;;;18.90;100.00;101959.19;5015478;28;20327;-81
2023/08/23 07:19:47;;;;;;;;;;;;;;;19.02;100.00;101952.19;5000051;28;19972;-78
2023/08/23 07:22:33;;;;;;;;;;;;;;;19.10;100.00;101956.13;5017026;28;20367;-78
2023/08/23 07:25:18;;;;;;;;;;;;;;;19.18;100.00;101949.41;5013435;28;20549;-79
2023/08/23 07:28:04;;;;;;;;;;;;;;;19.28;100.00;101953.19;5014788;28;19925;-79
2023/08/23 07:30:50;;;;;;;;;;;;;;;19.43;100.00;101955.88;4998127;28;20067;-79
2023/08/23 07:33:35;;;;;;;;;;;;;;;19.57;100.00;101963.88;5012819;28;20067;-78
2023/08/23 07:36:21;;;;;;;;;;;;;;;19.72;100.00;101958.44;5014647;28;20158;-78
2023/08/23 07:39:07;;;;;;;;;;;;;;;19.80;100.00;101965.03;5014958;28;20621;-78
2023/08/23 07:41:54;;;;;;;;;;;;;;;19.89;100.00;101968.88;5011961;28;19951;-78
2023/08/23 07:44:40;;;;;;;;;;;;;;;19.99;100.00;101969.16;4974277;28;19925;-78
2023/08/23 07:47:25;;;;;;;;;;;;;;;20.10;100.00;101967.56;5012857;28;20376;-78
2023/08/23 07:50:11;;;;;;;;;;;;;;;20.24;100.00;101972.00;4993706;28;19921;-81
2023/08/23 07:52:57;;;;;;;;;;;;;;;20.37;100.00;101966.63;5009173;28;19980;-80
2023/08/23 07:55:42;;;;;;;;;;;;;;;20.47;100.00;101968.56;5008766;28;19956;-80
2023/08/23 07:58:28;;;;;;;;;;;;;;;20.60;100.00;101978.47;5012421;28;19964;-80
2023/08/23 08:01:14;;;;;;;;;;;;;;;20.76;100.00;101976.41;4995977;28;19920;-79
2023/08/23 08:04:00;;;;;;;;;;;;;;;20.85;100.00;101977.63;5011768;28;20067;-80
2023/08/23 08:06:45;;;;;;;;;;;;;;;20.86;100.00;101975.81;4987453;28;20004;-80
2023/08/23 08:09:31;;;;;;;;;;;;;;;20.84;100.00;101986.66;5014302;28;20311;-79
2023/08/23 08:12:16;;;;;;;;;;;;;;;20.86;100.00;101983.88;5011733;28;21084;-80
2023/08/23 08:15:05;;;;;;;;;;;;;;;20.95;100.00;101982.34;4999619;28;19932;-80
2023/08/23 08:17:52;;;;;;;;;;;;;;;21.12;100.00;101989.19;5001098;28;20344;-79
2023/08/23 08:20:37;;;;;;;;;;;;;;;21.33;100.00;101991.28;5015558;28;19925;-79
2023/08/23 08:23:23;;;;;;;;;;;;;;;21.48;100.00;101995.56;5016086;28;19928;-78
2023/08/23 08:26:11;;;;;;;;;;;;;;;21.60;100.00;101993.78;4999568;28;19950;-80
2023/08/23 08:28:57;;;;;;;;;;;;;;;21.83;100.00;101996.59;5015640;28;19935;-80
2023/08/23 08:31:42;;;;;;;;;;;;;;;21.90;100.00;101995.16;5014929;28;19991;-79
2023/08/23 08:34:28;;;;;;;;;;;;;;;21.87;100.00;101994.53;5015199;28;19925;-80
2023/08/23 08:37:15;;;;;;;;;;;;;;;21.89;100.00;102000.69;5011655;28;19952;-79
2023/08/23 08:40:01;;;;;;;;;;;;;;;22.01;100.00;101990.81;5016485;28;19932;-81
2023/08/23 08:42:46;;;;;;;;;;;;;;;22.22;100.00;101999.09;5013689;28;20047;-80
2023/08/23 08:45:32;;;;;;;;;;;;;;;22.44;100.00;101994.72;4998290;28;19921;-81
2023/08/23 08:48:18;;;;;;;;;;;;;;;22.57;100.00;102005.41;4984785;28;19964;-80
2023/08/23 08:51:03;;;;;;;;;;;;;;;22.67;100.00;102002.84;5000571;28;21837;-81
2023/08/23 08:53:50;;;;;;;;;;;;;;;22.78;100.00;102000.19;5005230;28;20370;-81
2023/08/23 08:56:36;;;;;;;;;;;;;;;22.84;100.00;102005.09;5011450;28;20488;-79
2023/08/23 08:59:22;;;;;;;;;;;;;;;22.84;100.00;102005.09;4993943;28;20671;-79
2023/08/23 09:02:08;;;;;;;;;;;;;;;22.83;100.00;102011.47;4997079;28;20066;-80
2023/08/23 09:04:54;;;;;;;;;;;;;;;22.75;100.00;102001.28;4994898;28;19925;-80
2023/08/23 09:07:41;;;;;;;;;;;;;;;22.81;100.00;101999.91;4995296;28;19928;-80
2023/08/23 09:10:27;;;;;;;;;;;;;;;22.97;100.00;101996.84;5000296;28;19942;-80
2023/08/23 09:13:12;;;;;;;;;;;;;;;23.11;100.00;102001.16;4999499;28;19920;-79
2023/08/23 09:15:58;;;;;;;;;;;;;;;23.24;100.00;101997.41;4999628;28;19935;-80
2023/08/23 09:18:44;;;;;;;;;;;;;;;23.37;100.00;101992.75;5009883;28;20005;-79
2023/08/23 09:21:30;;;;;;;;;;;;;;;23.57;100.00;101995.66;4993231;28;19975;-82
2023/08/23 09:24:16;;;;;;;;;;;;;;;23.81;100.00;101998.16;4998603;28;19929;-84
2023/08/23 09:27:01;;;;;;;;;;;;;;;24.04;100.00;102006.16;5000755;28;20023;-84
2023/08/23 09:29:47;;;;;;;;;;;;;;;24.19;100.00;102005.88;5014774;28;19924;-83
2023/08/23 09:32:33;;;;;;;;;;;;;;;24.35;100.00;102005.41;5014789;28;19925;-84
2023/08/23 09:35:19;;;;;;;;;;;;;;;24.26;100.00;102002.53;5016032;28;20343;-83
2023/08/23 09:38:04;;;;;;;;;;;;;;;24.23;100.00;101999.19;4999780;28;19924;-83
2023/08/23 09:40:50;;;;;;;;;;;;;;;24.37;100.00;101998.00;4998282;28;19925;-83
2023/08/23 09:43:36;;;;;;;;;;;;;;;24.57;100.00;101995.41;5012306;28;20020;-81
2023/08/23 09:46:24;;;;;;;;;;;;;;;24.70;100.00;101993.34;5012847;28;19967;-81
2023/08/23 09:49:10;;;;;;;;;;;;;;;24.91;100.00;101998.75;5017358;28;19921;-78
2023/08/23 09:51:55;;;;;;;;;;;;;;;24.90;100.00;101994.31;5002844;28;20008;-82
2023/08/23 09:54:54;;;;;;;;;;;;;;;25.03;100.00;101999.50;4988579;28;19925;-81
2023/08/23 09:57:40;;;;;;;;;;;;;;;25.08;96.71;101991.81;5002504;28;19928;-82
2023/08/23 10:00:29;;;;;;;;;;;;;;;25.19;100.00;101988.16;5017447;28;19925;-82
2023/08/23 10:03:15;;;;;;;;;;;;;;;25.34;100.00;101985.88;5003679;28;19924;-80
2023/08/23 10:06:01;;;;;;;;;;;;;;;25.26;93.81;101988.44;5018503;28;19931;-81
2023/08/23 10:08:46;;;;;;;;;;;;;;;25.17;96.00;101981.16;5001500;28;19917;-80
2023/08/23 10:11:32;;;;;;;;;;;;;;;25.07;98.40;101976.53;5019575;28;19944;-83
2023/08/23 10:14:18;;;;;;;;;;;;;;;24.99;100.00;101984.50;5017988;28;20003;-81
2023/08/23 10:17:04;;;;;;;;;;;;;;;24.89;98.80;101980.94;4987474;28;19952;-80
2023/08/23 10:19:50;;;;;;;;;;;;;;;24.78;96.78;101984.56;4998713;28;19921;-76
2023/08/23 10:22:35;;;;;;;;;;;;;;;24.56;90.38;101978.31;5002177;28;19924;-78
2023/08/23 10:25:22;;;;;;;;;;;;;;;24.28;91.65;101984.31;5017247;28;19974;-77
2023/08/23 10:28:08;;;;;;;;;;;;;;;24.04;94.47;101979.13;5000690;28;19932;-77
2023/08/23 10:30:54;;;;;;;;;;;;;;;23.91;96.66;101973.06;5001883;28;19920;-79
2023/08/23 10:33:40;;;;;;;;;;;;;;;23.78;99.21;101965.97;4999703;28;19931;-78
2023/08/23 10:36:26;;;;;;;;;;;;;;;23.72;99.94;101972.78;5000012;28;20018;-77
2023/08/23 10:39:12;;;;;;;;;;;;;;;23.76;99.12;101956.28;5018460;28;19924;-80
2023/08/23 10:41:58;;;;;;;;;;;;;;;23.79;98.92;101965.00;5014132;28;21840;-78
2023/08/23 10:44:44;;;;;;;;;;;;;;;23.87;96.97;101961.63;5000497;28;19928;-78
2023/08/23 10:47:31;;;;;;;;;;;;;;;23.93;94.80;101958.41;5002312;28;19925;-80
2023/08/23 10:50:17;;;;;;;;;;;;;;;23.86;91.22;101974.28;5000266;28;20041;-78
2023/08/23 10:53:04;;;;;;;;;;;;;;;23.73;92.63;101963.66;5012806;28;20047;-77
2023/08/23 10:55:49;;;;;;;;;;;;;;;23.57;92.01;101974.03;5015357;28;19951;-76
2023/08/23 10:58:36;;;;;;;;;;;;;;;23.49;89.51;101973.81;5013353;28;19952;-78
2023/08/23 11:01:22;;;;;;;;;;;;;;;23.51;89.48;101966.44;4994670;28;19924;-79
2023/08/23 11:04:07;;;;;;;;;;;;;;;23.55;88.93;101954.41;4988754;28;19925;-79
2023/08/23 11:06:53;;;;;;;;;;;;;;;23.65;95.61;101960.75;4998498;28;19963;-79
2023/08/23 11:09:41;;;;;;;;;;;;;;;23.68;91.09;101949.69;4997399;28;20471;-79
2023/08/23 11:12:27;;;;;;;;;;;;;;;23.59;86.07;101962.13;5000509;28;19932;-79
2023/08/23 11:15:13;;;;;;;;;;;;;;;23.58;88.95;101965.81;5017007;28;20007;-79
2023/08/23 11:17:59;;;;;;;;;;;;;;;23.68;87.72;101962.31;5013307;28;19978;-77
2023/08/23 11:20:45;;;;;;;;;;;;;;;23.80;87.59;101963.16;4999424;28;19940;-77
2023/08/23 11:23:30;;;;;;;;;;;;;;;23.96;88.16;101968.97;5013602;28;19963;-78
2023/08/23 11:26:16;;;;;;;;;;;;;;;24.08;84.84;101961.66;5014770;28;19925;-81
2023/08/23 11:29:02;;;;;;;;;;;;;;;24.12;87.49;101956.84;5014740;28;19998;-80
2023/08/23 11:31:54;;;;;;;;;;;;;;;24.27;86.93;101950.13;5015537;28;20247;-80
2023/08/23 11:34:40;;;;;;;;;;;;;;;24.38;89.29;101949.19;5000240;28;19917;-77
2023/08/23 11:37:26;;;;;;;;;;;;;;;24.36;86.68;101951.16;5000380;28;19924;-78
2023/08/23 11:40:11;;;;;;;;;;;;;;;24.22;83.39;101952.38;5014164;28;19928;-79
2023/08/23 11:42:58;;;;;;;;;;;;;;;24.01;84.02;101955.91;5012418;28;19929;-77
2023/08/23 11:45:43;;;;;;;;;;;;;;;23.86;85.29;101957.22;4997490;28;19925;-78
2023/08/23 11:48:29;;;;;;;;;;;;;;;23.85;85.80;101960.88;5011762;28;20407;-82
2023/08/23 11:51:15;;;;;;;;;;;;;;;23.88;89.53;101957.94;5013232;28;20590;-81
2023/08/23 11:54:00;;;;;;;;;;;;;;;23.80;86.42;101955.88;5013795;28;19928;-81
2023/08/23 11:56:46;;;;;;;;;;;;;;;23.84;87.17;101951.94;5013647;28;19939;-81
2023/08/23 11:59:32;;;;;;;;;;;;;;;23.90;84.30;101955.13;4995639;28;20567;-80
2023/08/23 12:02:17;;;;;;;;;;;;;;;23.90;87.08;101949.72;4993921;28;19924;-81
2023/08/23 12:05:03;;;;;;;;;;;;;;;23.99;86.70;101963.31;5011428;28;20000;-80
2023/08/23 12:07:48;;;;;;;;;;;;;;;24.05;84.05;101958.34;4982071;28;19921;-83
2023/08/23 12:10:34;;;;;;;;;;;;;;;24.12;82.19;101959.56;5011981;28;19925;-83
2023/08/23 12:13:20;;;;;;;;;;;;;;;24.22;86.25;101957.78;5008582;28;19929;-80
2023/08/23 12:16:06;;;;;;;;;;;;;;;24.28;84.34;101957.25;4998181;28;20380;-79
2023/08/23 12:18:53;;;;;;;;;;;;;;;24.36;86.34;101959.25;5010469;28;19970;-80
2023/08/23 12:21:39;;;;;;;;;;;;;;;24.37;85.39;101960.13;5009915;28;20290;-82
2023/08/23 12:24:24;;;;;;;;;;;;;;;24.40;84.25;101965.28;4995739;28;19939;-80
2023/08/23 12:27:10;;;;;;;;;;;;;;;24.44;84.74;101965.88;5010881;28;20086;-81
2023/08/23 12:29:55;;;;;;;;;;;;;;;24.30;82.32;101958.97;5004505;28;19990;-79
2023/08/23 12:32:41;;;;;;;;;;;;;;;24.19;83.80;101963.44;4995132;28;20027;-81
2023/08/23 12:35:27;;;;;;;;;;;;;;;24.16;85.30;101958.31;5010338;28;20086;-81
2023/08/23 12:38:13;;;;;;;;;;;;;;;24.27;90.47;101952.84;5010216;28;20367;-80
2023/08/23 12:40:58;;;;;;;;;;;;;;;24.34;86.15;101960.41;5008192;28;19921;-80
2023/08/23 12:43:44;;;;;;;;;;;;;;;24.44;86.96;101960.47;5008329;28;19983;-80
2023/08/23 12:46:30;;;;;;;;;;;;;;;24.44;85.83;101963.19;5009192;28;19930;-80
2023/08/23 12:49:15;;;;;;;;;;;;;;;24.39;87.12;101963.56;5010065;28;20291;-79
2023/08/23 12:52:01;;;;;;;;;;;;;;;24.22;85.23;101963.19;5006477;28;19928;-81
2023/08/23 12:54:47;;;;;;;;;;;;;;;24.18;86.43;101971.72;5008678;28;19984;-80
2023/08/23 12:57:33;;;;;;;;;;;;;;;24.14;84.96;101965.72;4982005;28;19925;-79
2023/08/23 13:00:19;;;;;;;;;;;;;;;24.09;86.62;101967.94;5008574;28;21193;-80
2023/08/23 13:03:04;;;;;;;;;;;;;;;24.05;87.96;101958.34;5009871;28;21826;-79
2023/08/23 13:05:50;;;;;;;;;;;;;;;24.12;87.03;101967.66;5005870;28;20403;-81
2023/08/23 13:08:39;;;;;;;;;;;;;;;24.18;88.42;101971.72;4995728;28;19933;-81
2023/08/23 13:11:25;;;;;;;;;;;;;;;24.08;88.72;101969.78;4996203;28;19929;-81
2023/08/23 13:14:11;;;;;;;;;;;;;;;24.01;90.51;101976.66;5008246;28;19932;-79
2023/08/23 13:16:56;;;;;;;;;;;;;;;23.93;90.48;101962.97;5009483;28;19956;-78
2023/08/23 13:19:42;;;;;;;;;;;;;;;23.87;89.31;101975.16;5008931;28;20128;-80
2023/08/23 13:22:28;;;;;;;;;;;;;;;23.85;90.78;101977.13;5009367;28;20091;-80
2023/08/23 13:25:17;;;;;;;;;;;;;;;23.69;90.59;101986.53;5012144;28;20020;-81
2023/08/23 13:28:03;;;;;;;;;;;;;;;23.64;90.50;101975.22;5014166;28;19936;-79
2023/08/23 13:30:49;;;;;;;;;;;;;;;23.58;88.58;101975.75;5015908;28;19925;-80
2023/08/23 13:33:34;;;;;;;;;;;;;;;23.52;89.32;101968.19;5015970;28;19925;-83
2023/08/23 13:36:20;;;;;;;;;;;;;;;23.53;90.78;101964.50;5003068;28;19924;-84
2023/08/23 13:39:07;;;;;;;;;;;;;;;23.62;86.84;101966.41;5005048;28;20368;-84
2023/08/23 13:41:53;;;;;;;;;;;;;;;23.63;87.02;101967.28;4987279;28;19929;-86
2023/08/23 13:44:38;;;;;;;;;;;;;;;23.63;88.08;101962.72;5001225;28;19925;-86
2023/08/23 13:47:24;;;;;;;;;;;;;;;23.64;84.05;101966.28;5019688;28;19925;-84
2023/08/23 13:50:10;;;;;;;;;;;;;;;23.62;85.42;101955.59;5019424;28;19928;-84
2023/08/23 13:52:55;;;;;;;;;;;;;;;23.59;87.27;101951.31;5018913;28;19964;-85
2023/08/23 13:55:41;;;;;;;;;;;;;;;23.59;84.40;101961.28;5001293;28;19925;-86
2023/08/23 13:58:27;;;;;;;;;;;;;;;23.58;88.82;101960.41;5002152;28;19925;-85
2023/08/23 14:01:12;;;;;;;;;;;;;;;23.50;88.57;101959.31;5013980;28;19931;-86
2023/08/23 14:03:58;;;;;;;;;;;;;;;23.48;87.95;101955.91;4999727;28;19963;-81
2023/08/23 14:06:44;;;;;;;;;;;;;;;23.50;87.86;101962.03;5015642;28;19925;-82